Terminal Aerodrome Forecast
Issued by NWS Oklahoma City, OK

Home | Current Version | Previous Version | Text Only | Print | Product List | Glossary On
Versions: 1 2 3 4 5 6 7 8 9 10 11 12
000
FTUS44 KOUN 272322
TAFOUN
TAF
KOUN 272322Z 2800/2824 19011KT P6SM SCT050 BKN250
     FM280200 35012KT P6SM SCT100 BKN180
      TEMPO 2802/2805 VRB25G40KT 4SM TSRA BR SCT025 OVC050CB
     FM280600 35014G21KT P6SM SCT040
      TEMPO 2806/2810 BKN015=

USA.gov is the U.S. government's official web portal to all federal, state and local government web resources and services.